Impacts TAF Board
For situational awareness. Not to be used for flight planning purposes.
IDs:

KBWI - Baltimore-Washington, MD, US

Issued at 1141 UTC 17 Sep 2019
Updated at 1253 UTC 17 Sep 2019
Potential Impact None Slight Moderate High
Time1210Z 17/13Z 17/14Z 17/15Z 17/16Z 17/17Z 17/18Z 17/19Z 17/20Z 17/21Z 17/22Z 17/23Z 18/00Z 18/01Z>>
Type OBS PRVL PRVL PRVL PRVL PRVL PRVL PRVL PRVL PRVL PRVL PRVL PRVL PRVL
VIS 7 >6 >6 >6 >6 >6 >6 >6 >6 >6 >6 >6 >6 >6
CIG 15 70 70 70 80 80 80 80 -- -- -- -- -- --
Cover BKN BKN BKN BKN BKN BKN BKN BKN SCT SCT SCT SCT SCT SCT
FltCat MVFR VFR VFR VFR VFR VFR VFR VFR VFR VFR VFR VFR VFR VFR
WX -- -- -- -- -- -- -- -- -- -- -- -- -- --
WDir 60 40 40 40 70 70 70 70 60 60 60 60 60 60
WSpd 9 10 10 10 8 8 8 8 7 7 7 7 7 7
WGst -- -- -- -- -- -- -- -- -- -- -- -- -- --
Raw TAF
KBWI 171141Z 1712/1818 04010KT P6SM SCT015 BKN070
  FM171600 07008KT P6SM BKN080
  FM172000 06007KT P6SM SCT100
  FM180200 VRB03KT P6SM SKC


Raw METAR
KBWI 171210Z 06009KT 7SM BKN015 BKN060 BKN110 22/18 A3008 RMK AO2 T02170178
KBWI 171154Z 05010KT 10SM SCT015 BKN060 BKN110 22/18 A3008 RMK AO2 SLP184 T02170178 10244 20217 53019
KBWI 171054Z 04010KT 10SM FEW011 SCT060 BKN100 22/18 A3006 RMK AO2 SLP176 T02170178
KBWI 171020Z 04010KT 10SM SCT011 BKN060 BKN100 22/19 A3005 RMK AO2 T02170189
KBWI 170954Z 03010KT 10SM BKN010 OVC060 22/19 A3004 RMK AO2 SLP170 T02170189

METAR Board
Radar Display
Forecast Discussion
For situational awareness. Not to be used for flight planning purposes.